Time;durP1;ratioP1;P1;durP2;ratioP2;P2;SDS_P1;SDS_P2;PMS_P1;PMS_P2;Temp;Humidity;BMP_temperature;BMP_pressure;BME280_temperature;BME280_humidity;BME280_pressure;Samples;Min_cycle;Max_cycle;Signal;HPM_P1;HPM_P2
2021/05/05 00:01:13;;;;;;;4.15;2.33;;;;;;;10.75;58.83;99179.09;5065466;28;20028;-66
2021/05/05 00:03:38;;;;;;;3.10;2.15;;;;;;;10.85;58.49;99180.53;5075325;28;20058;-66
2021/05/05 00:06:04;;;;;;;4.22;1.90;;;;;;;10.56;59.02;99181.47;5073730;28;20043;-66
2021/05/05 00:08:29;;;;;;;3.03;2.30;;;;;;;10.47;60.18;99174.75;5073845;28;20078;-66
2021/05/05 00:10:54;;;;;;;6.78;2.22;;;;;;;10.73;59.25;99173.00;5060161;28;20044;-67
2021/05/05 00:13:20;;;;;;;2.95;2.15;;;;;;;10.79;58.90;99170.19;5057421;28;20032;-66
2021/05/05 00:15:46;;;;;;;3.08;2.40;;;;;;;10.63;59.30;99175.97;5074635;28;20036;-66
2021/05/05 00:18:11;;;;;;;3.60;2.88;;;;;;;10.81;59.06;99173.63;5069823;28;20484;-66
2021/05/05 00:20:37;;;;;;;3.85;2.50;;;;;;;10.83;59.74;99170.91;5074679;28;20127;-66
2021/05/05 00:23:02;;;;;;;4.53;2.30;;;;;;;10.87;58.35;99165.50;5074047;28;20525;-66
2021/05/05 00:25:28;;;;;;;5.65;2.60;;;;;;;10.85;58.69;99171.75;5074741;28;20101;-66
2021/05/05 00:27:53;;;;;;;3.45;2.67;;;;;;;10.75;59.50;99164.16;5074241;28;20028;-66
2021/05/05 00:30:20;;;;;;;4.90;2.67;;;;;;;11.05;57.93;99165.78;5075011;28;20407;-66
2021/05/05 00:32:45;;;;;;;4.43;2.28;;;;;;;10.84;59.45;99173.50;5074542;28;20468;-67
2021/05/05 00:35:11;;;;;;;2.72;2.53;;;;;;;10.89;58.57;99166.31;5074211;28;20118;-66
2021/05/05 00:37:36;;;;;;;4.63;3.47;;;;;;;10.67;59.09;99176.72;5070682;28;20070;-66
2021/05/05 00:40:04;;;;;;;3.15;2.88;;;;;;;10.63;59.37;99169.81;5074531;28;20055;-66
2021/05/05 00:42:29;;;;;;;4.47;3.03;;;;;;;10.95;58.24;99167.00;5074289;28;20035;-66
2021/05/05 00:45:04;;;;;;;2.97;2.58;;;;;;;10.60;59.76;99168.16;5057587;28;20024;-66
2021/05/05 00:47:29;;;;;;;3.38;2.53;;;;;;;10.33;60.78;99161.97;5071705;28;20024;-66
2021/05/05 00:49:55;;;;;;;5.80;3.65;;;;;;;10.53;59.61;99164.00;5072927;28;20038;-67
2021/05/05 00:52:21;;;;;;;3.28;2.65;;;;;;;10.93;59.23;99164.41;5055527;28;20032;-67
2021/05/05 00:54:47;;;;;;;3.47;2.60;;;;;;;10.69;59.53;99169.63;5072953;28;20041;-66
2021/05/05 00:57:12;;;;;;;6.93;3.38;;;;;;;10.36;59.95;99170.66;5072822;28;20040;-66
2021/05/05 00:59:38;;;;;;;3.97;2.90;;;;;;;10.48;60.07;99179.13;5071540;28;20483;-66
2021/05/05 01:02:03;;;;;;;4.53;2.78;;;;;;;10.65;60.47;99168.00;5069252;28;20487;-66
2021/05/05 01:04:28;;;;;;;5.20;3.08;;;;;;;10.49;59.91;99172.91;5073188;28;20021;-66
2021/05/05 01:06:54;;;;;;;4.22;3.15;;;;;;;10.35;60.30;99166.31;5072182;28;20070;-66
2021/05/05 01:09:19;;;;;;;4.55;3.22;;;;;;;10.38;60.37;99170.63;5072425;28;20040;-67
2021/05/05 01:11:46;;;;;;;3.63;3.17;;;;;;;10.39;60.77;99162.66;5063440;28;20031;-66
2021/05/05 01:14:11;;;;;;;7.13;3.67;;;;;;;10.60;59.68;99162.03;5072979;28;20234;-66
2021/05/05 01:16:37;;;;;;;5.13;3.55;;;;;;;10.51;60.01;99169.31;5057341;28;20395;-67
2021/05/05 01:19:03;;;;;;;4.78;3.70;;;;;;;10.56;59.62;99163.03;5055020;28;20480;-67
2021/05/05 01:21:28;;;;;;;7.97;4.32;;;;;;;10.48;59.46;99169.44;5072244;28;20036;-66
2021/05/05 01:23:53;;;;;;;4.63;3.00;;;;;;;10.30;59.89;99165.56;5072477;28;20082;-66
2021/05/05 01:26:19;;;;;;;4.25;3.40;;;;;;;10.30;60.48;99168.22;5071937;28;20024;-66
2021/05/05 01:28:45;;;;;;;4.95;3.80;;;;;;;10.17;60.24;99157.19;5071325;28;20120;-66
2021/05/05 01:31:13;;;;;;;5.97;4.05;;;;;;;10.22;59.58;99165.84;5071147;28;20088;-66
2021/05/05 01:33:39;;;;;;;5.10;3.53;;;;;;;10.27;59.34;99161.28;5054853;28;20025;-67
2021/05/05 01:36:06;;;;;;;5.07;3.60;;;;;;;10.08;59.89;99157.50;5072109;28;20096;-66
2021/05/05 01:38:31;;;;;;;7.57;4.13;;;;;;;10.49;58.79;99168.53;5055826;28;20123;-66
2021/05/05 01:40:57;;;;;;;4.30;3.65;;;;;;;10.60;58.37;99165.53;5071668;28;20403;-66
2021/05/05 01:43:22;;;;;;;7.20;4.30;;;;;;;10.61;58.32;99164.59;5070926;28;20024;-66
2021/05/05 01:45:47;;;;;;;5.97;3.85;;;;;;;10.63;57.28;99154.88;5067745;28;20060;-66
2021/05/05 01:48:15;;;;;;;3.78;3.47;;;;;;;10.35;57.52;99160.16;5072227;28;20052;-66
2021/05/05 01:50:40;;;;;;;3.60;3.28;;;;;;;10.04;58.39;99148.81;5052811;28;538379;-66
2021/05/05 01:53:05;;;;;;;5.90;3.97;;;;;;;10.22;58.24;99149.16;5060390;28;20414;-66
2021/05/05 01:55:31;;;;;;;5.05;3.28;;;;;;;10.40;57.93;99143.28;5072828;28;20416;-66
2021/05/05 01:57:56;;;;;;;4.05;3.60;;;;;;;10.23;58.48;99140.34;5073193;28;20074;-66
2021/05/05 02:00:24;;;;;;;5.88;3.42;;;;;;;10.48;57.14;99143.09;5073046;28;20043;-66
2021/05/05 02:02:50;;;;;;;7.40;3.80;;;;;;;10.22;57.84;99146.53;5055468;28;20021;-66
2021/05/05 02:05:15;;;;;;;4.25;3.45;;;;;;;10.24;57.88;99132.38;5054994;28;20021;-67
2021/05/05 02:07:40;;;;;;;6.32;3.78;;;;;;;10.16;57.85;99144.06;5072548;28;20031;-66
2021/05/05 02:10:08;;;;;;;10.45;3.88;;;;;;;10.31;57.68;99143.59;5066770;28;20028;-66
2021/05/05 02:12:33;;;;;;;5.75;3.78;;;;;;;10.09;57.52;99125.84;5056550;28;20420;-67
2021/05/05 02:14:59;;;;;;;7.80;4.25;;;;;;;10.15;57.28;99132.69;5055220;28;20059;-66
2021/05/05 02:17:24;;;;;;;4.57;4.13;;;;;;;10.01;57.52;99133.13;5072549;28;20035;-66
2021/05/05 02:19:50;;;;;;;4.85;3.60;;;;;;;10.35;56.81;99132.06;5069943;28;20047;-66
2021/05/05 02:22:15;;;;;;;5.35;3.95;;;;;;;10.33;56.80;99122.44;5065526;28;20138;-66
2021/05/05 02:24:41;;;;;;;7.63;4.45;;;;;;;10.12;56.27;99122.25;5072623;28;20028;-66
2021/05/05 02:27:06;;;;;;;7.70;4.20;;;;;;;9.97;56.92;99120.97;5071367;28;20048;-66
2021/05/05 02:29:32;;;;;;;4.28;3.88;;;;;;;10.17;56.86;99114.19;5072906;28;20150;-66
2021/05/05 02:31:57;;;;;;;4.50;3.90;;;;;;;9.96;57.12;99122.75;5071556;28;20060;-67
2021/05/05 02:34:22;;;;;;;10.80;4.13;;;;;;;9.86;56.54;99122.16;5072137;28;20389;-66
2021/05/05 02:36:48;;;;;;;4.47;4.07;;;;;;;9.93;56.79;99122.81;5057801;28;20032;-66
2021/05/05 02:39:13;;;;;;;6.93;4.22;;;;;;;10.31;56.24;99130.44;5054420;28;20032;-66
2021/05/05 02:41:39;;;;;;;5.40;3.53;;;;;;;10.41;55.62;99123.09;5060061;28;20028;-66
2021/05/05 02:44:05;;;;;;;5.80;4.28;;;;;;;10.36;55.89;99131.13;5054800;28;20020;-66
2021/05/05 02:46:30;;;;;;;5.30;4.28;;;;;;;10.12;56.20;99131.03;5054243;28;20020;-66
2021/05/05 02:48:56;;;;;;;4.97;3.80;;;;;;;9.94;57.40;99139.50;5071225;28;20055;-66
2021/05/05 02:51:22;;;;;;;5.97;4.15;;;;;;;10.18;56.37;99131.72;5072188;28;20414;-66
2021/05/05 02:53:47;;;;;;;4.60;4.03;;;;;;;10.08;56.57;99136.44;5071444;28;20028;-66
2021/05/05 02:56:13;;;;;;;7.40;4.28;;;;;;;9.79;57.87;99144.31;5071610;28;20086;-66
2021/05/05 02:58:38;;;;;;;4.85;4.00;;;;;;;9.84;57.49;99139.78;5071849;28;20472;-66
2021/05/05 03:01:03;;;;;;;7.63;4.22;;;;;;;10.03;57.13;99133.94;5071648;28;20024;-66
2021/05/05 03:03:29;;;;;;;4.60;4.20;;;;;;;10.29;56.16;99126.97;5061882;28;20066;-66
2021/05/05 03:05:54;;;;;;;4.30;3.90;;;;;;;10.04;56.34;99138.28;5070935;28;20037;-66
2021/05/05 03:08:19;;;;;;;5.57;4.00;;;;;;;10.02;56.88;99132.22;5058162;28;20043;-66
2021/05/05 03:10:46;;;;;;;7.78;4.03;;;;;;;9.67;57.70;99131.53;5070425;28;20044;-66
2021/05/05 03:13:11;;;;;;;5.50;4.97;;;;;;;9.67;57.28;99137.66;5045236;28;20020;-66
2021/05/05 03:15:37;;;;;;;7.32;4.40;;;;;;;9.79;57.10;99127.66;5060507;28;20025;-67
2021/05/05 03:18:02;;;;;;;5.18;4.20;;;;;;;9.83;57.44;99126.66;5071490;28;20024;-66
2021/05/05 03:20:27;;;;;;;6.30;4.30;;;;;;;9.91;57.25;99126.44;5071883;28;20039;-66
2021/05/05 03:22:53;;;;;;;5.35;3.90;;;;;;;10.03;56.11;99138.34;5041878;28;20075;-66
2021/05/05 03:25:18;;;;;;;6.53;4.40;;;;;;;10.09;56.21;99127.59;5066759;28;20025;-64
2021/05/05 03:27:44;;;;;;;6.38;4.03;;;;;;;9.72;57.36;99124.34;5071849;28;20036;-67
2021/05/05 03:30:09;;;;;;;5.10;3.75;;;;;;;9.99;56.54;99127.91;5070286;28;20024;-66
2021/05/05 03:32:35;;;;;;;6.47;4.50;;;;;;;9.99;55.59;99117.38;5066240;28;20099;-65
2021/05/05 03:35:01;;;;;;;5.88;3.92;;;;;;;10.05;55.54;99132.13;5054223;28;20028;-66
2021/05/05 03:37:26;;;;;;;5.85;4.25;;;;;;;10.01;55.82;99127.88;5044438;28;20032;-66
2021/05/05 03:39:51;;;;;;;6.03;3.92;;;;;;;9.66;56.57;99121.91;5068629;28;20033;-66
2021/05/05 03:42:17;;;;;;;4.50;3.58;;;;;;;9.83;55.98;99126.66;5071585;28;20036;-66
2021/05/05 03:44:42;;;;;;;4.97;4.40;;;;;;;9.76;56.39;99123.34;5071003;28;20025;-66
2021/05/05 03:47:08;;;;;;;5.68;3.92;;;;;;;9.86;56.14;99129.19;5070838;28;20386;-66
2021/05/05 03:49:33;;;;;;;6.30;4.05;;;;;;;9.83;55.89;99127.53;5052514;28;20035;-66
2021/05/05 03:51:58;;;;;;;4.63;3.72;;;;;;;9.84;55.11;99125.75;5069503;28;20074;-66
2021/05/05 03:54:24;;;;;;;10.95;4.10;;;;;;;9.81;55.53;99113.56;5057754;28;20028;-66
2021/05/05 03:56:49;;;;;;;7.72;4.15;;;;;;;9.79;55.47;99119.75;5066091;28;20052;-66
2021/05/05 03:59:14;;;;;;;4.03;3.70;;;;;;;10.12;54.97;99117.84;5033713;28;20491;-66
2021/05/05 04:01:39;;;;;;;4.68;3.30;;;;;;;10.02;54.58;99119.06;5067424;28;20032;-66
2021/05/05 04:04:05;;;;;;;4.07;3.67;;;;;;;9.87;54.76;99117.78;5071551;28;20020;-66
2021/05/05 04:06:30;;;;;;;4.53;3.90;;;;;;;9.81;55.19;99113.56;5067751;28;20160;-66
2021/05/05 04:08:55;;;;;;;4.13;3.30;;;;;;;9.87;55.32;99118.63;5070317;28;20028;-66
2021/05/05 04:11:21;;;;;;;3.78;3.45;;;;;;;10.20;54.65;99114.09;5071004;28;20095;-66
2021/05/05 04:13:46;;;;;;;4.18;3.80;;;;;;;10.55;53.84;99117.38;5068373;28;20105;-66
2021/05/05 04:16:12;;;;;;;5.22;3.40;;;;;;;10.24;54.83;99119.22;5067081;28;20541;-66
2021/05/05 04:18:37;;;;;;;4.82;3.63;;;;;;;10.30;54.34;99127.84;5071207;28;20032;-66
2021/05/05 04:21:04;;;;;;;5.65;3.55;;;;;;;10.52;54.06;99135.91;5071022;28;20064;-66
2021/05/05 04:23:31;;;;;;;4.55;3.70;;;;;;;10.45;54.46;99129.13;5058022;28;20386;-66
2021/05/05 04:25:57;;;;;;;4.68;3.38;;;;;;;10.89;52.76;99139.94;5054226;28;20028;-66
2021/05/05 04:28:23;;;;;;;4.30;3.78;;;;;;;10.68;53.55;99132.75;5070978;28;20039;-67
2021/05/05 04:30:48;;;;;;;4.57;3.90;;;;;;;10.87;53.42;99133.84;5065083;28;20036;-66
2021/05/05 04:33:14;;;;;;;5.30;3.88;;;;;;;11.16;52.90;99131.94;5070792;28;20070;-66
2021/05/05 04:35:39;;;;;;;6.30;3.45;;;;;;;10.67;53.58;99128.41;5070033;28;20411;-66
2021/05/05 04:38:04;;;;;;;6.22;3.70;;;;;;;10.54;54.29;99134.09;5070612;28;20025;-66
2021/05/05 04:40:30;;;;;;;5.20;3.22;;;;;;;10.49;53.81;99126.34;5069714;28;20103;-67
2021/05/05 04:42:55;;;;;;;5.70;3.63;;;;;;;10.42;54.56;99124.78;5071107;28;20033;-66
2021/05/05 04:45:20;;;;;;;6.05;3.85;;;;;;;10.39;55.04;99127.53;5072091;28;20027;-66
2021/05/05 04:47:46;;;;;;;5.45;3.63;;;;;;;10.46;54.72;99136.97;5068200;28;20434;-67
2021/05/05 04:50:11;;;;;;;4.80;3.60;;;;;;;10.43;54.75;99133.56;5074172;28;20020;-66
2021/05/05 04:52:37;;;;;;;5.88;3.38;;;;;;;10.55;54.47;99127.91;5058777;28;20030;-66
2021/05/05 04:55:04;;;;;;;10.82;4.68;;;;;;;10.11;55.43;99145.09;5056360;28;20385;-66
2021/05/05 04:57:29;;;;;;;4.32;3.95;;;;;;;10.72;54.55;99152.84;5074100;28;20020;-67
2021/05/05 04:59:55;;;;;;;7.85;5.22;;;;;;;10.81;53.95;99149.91;5074595;28;20028;-66
2021/05/05 05:02:20;;;;;;;7.95;5.20;;;;;;;10.67;53.62;99155.63;5056541;28;20032;-67
2021/05/05 05:04:45;;;;;;;6.32;5.82;;;;;;;10.71;53.45;99146.69;5056553;28;20460;-66
2021/05/05 05:07:11;;;;;;;6.43;4.30;;;;;;;10.34;55.12;99156.66;5073699;28;20035;-67
2021/05/05 05:09:36;;;;;;;5.75;4.68;;;;;;;10.62;54.53;99147.00;5074251;28;20021;-67
2021/05/05 05:12:02;;;;;;;5.03;4.03;;;;;;;11.08;53.59;99152.47;5074033;28;20044;-66
2021/05/05 05:14:27;;;;;;;4.45;3.40;;;;;;;11.15;52.69;99153.13;5057173;28;20028;-67
2021/05/05 05:16:53;;;;;;;6.63;3.42;;;;;;;11.11;53.28;99152.34;5073502;28;20031;-66
2021/05/05 05:19:18;;;;;;;4.43;3.42;;;;;;;10.62;53.58;99149.66;5072163;28;20031;-66
2021/05/05 05:21:44;;;;;;;4.20;3.55;;;;;;;10.89;53.36;99154.88;5074005;28;20472;-65
2021/05/05 05:24:10;;;;;;;8.38;4.40;;;;;;;10.76;53.83;99159.72;5073163;28;20078;-67
2021/05/05 05:26:35;;;;;;;6.13;3.25;;;;;;;11.40;52.83;99161.00;5071547;28;20028;-66
2021/05/05 05:29:01;;;;;;;6.45;3.40;;;;;;;10.88;53.63;99158.44;5069292;28;20028;-66
2021/05/05 05:31:27;;;;;;;4.35;3.15;;;;;;;11.35;53.35;99162.94;5075478;28;20476;-66
2021/05/05 05:33:52;;;;;;;8.23;3.40;;;;;;;12.13;51.38;99167.09;5056004;28;20094;-66
2021/05/05 05:36:17;;;;;;;5.32;3.33;;;;;;;12.69;50.29;99159.56;5055705;28;20032;-66
2021/05/05 05:38:43;;;;;;;7.60;3.83;;;;;;;15.98;44.44;99164.16;5073808;28;20060;-67
2021/05/05 05:41:08;;;;;;;4.63;3.45;;;;;;;17.27;39.56;99170.03;5055800;28;20057;-66
2021/05/05 05:43:34;;;;;;;7.53;3.33;;;;;;;17.37;38.86;99166.81;5073516;28;20032;-67
2021/05/05 05:45:59;;;;;;;3.70;2.45;;;;;;;18.96;36.43;99151.28;5073460;28;20028;-67
2021/05/05 05:48:24;;;;;;;4.28;2.90;;;;;;;20.64;33.42;99166.16;5073594;28;20025;-67
2021/05/05 05:50:49;;;;;;;4.55;2.90;;;;;;;19.42;34.88;99165.13;5072128;28;20050;-68
2021/05/05 05:53:15;;;;;;;5.40;3.40;;;;;;;19.81;33.80;99157.03;5073509;28;20032;-67
2021/05/05 05:55:43;;;;;;;4.32;2.80;;;;;;;20.55;33.73;99156.16;5072455;28;20086;-67
2021/05/05 05:58:08;;;;;;;8.27;4.25;;;;;;;23.02;29.19;99156.31;5072771;28;20546;-67
2021/05/05 06:00:34;;;;;;;7.60;3.38;;;;;;;20.50;32.40;99163.66;5055509;28;20036;-67
2021/05/05 06:02:59;;;;;;;3.58;2.80;;;;;;;21.93;30.94;99154.50;5055342;28;20395;-67
2021/05/05 06:05:24;;;;;;;5.13;2.83;;;;;;;21.46;31.20;99162.69;5073235;28;20476;-67
2021/05/05 06:07:50;;;;;;;4.85;2.70;;;;;;;24.38;27.88;99155.28;5055231;28;20020;-67
2021/05/05 06:10:15;;;;;;;6.35;3.17;;;;;;;25.87;26.30;99161.22;5055395;28;20051;-68
2021/05/05 06:12:41;;;;;;;5.38;2.85;;;;;;;26.32;25.29;99161.41;5055762;28;20031;-68
2021/05/05 06:15:07;;;;;;;4.53;2.88;;;;;;;28.77;23.11;99164.03;5055238;28;20032;-67
2021/05/05 06:17:32;;;;;;;4.15;2.47;;;;;;;28.59;22.15;99168.78;5072682;28;20024;-67
2021/05/05 06:19:57;;;;;;;2.40;2.20;;;;;;;29.54;21.61;99167.34;5072899;28;20028;-68
2021/05/05 06:22:23;;;;;;;6.63;2.55;;;;;;;30.41;20.27;99172.88;5055071;28;20387;-66
2021/05/05 06:24:48;;;;;;;4.97;2.53;;;;;;;29.09;21.44;99164.22;5072712;28;20021;-67
2021/05/05 06:27:13;;;;;;;4.45;2.20;;;;;;;30.35;20.66;99171.72;5072644;28;20024;-68
2021/05/05 06:29:39;;;;;;;2.60;1.73;;;;;;;29.16;22.03;99175.22;5071546;28;20029;-67
2021/05/05 06:32:04;;;;;;;3.90;2.20;;;;;;;30.73;20.70;99186.44;5072866;28;20033;-68
2021/05/05 06:34:32;;;;;;;3.67;2.15;;;;;;;31.97;18.53;99180.81;5072608;28;20479;-67
2021/05/05 06:36:58;;;;;;;6.25;2.25;;;;;;;28.35;22.26;99190.28;5072462;28;20028;-67
2021/05/05 06:39:23;;;;;;;2.75;2.45;;;;;;;27.02;23.70;99187.75;5046067;28;20115;-67
2021/05/05 06:41:48;;;;;;;4.50;2.88;;;;;;;23.36;27.82;99187.53;5051341;28;20108;-67
2021/05/05 06:44:14;;;;;;;5.53;2.83;;;;;;;20.94;31.55;99182.72;5051423;28;20025;-67
2021/05/05 06:46:50;;;;;;;3.58;2.30;;;;;;;21.53;30.53;99185.38;5051011;28;20519;-67
2021/05/05 06:49:16;;;;;;;2.40;2.20;;;;;;;26.94;23.41;99182.22;5052369;28;20033;-66
2021/05/05 06:51:41;;;;;;;2.75;2.33;;;;;;;27.32;22.52;99183.88;5052306;28;20492;-67
2021/05/05 06:54:07;;;;;;;4.10;2.40;;;;;;;29.22;20.96;99188.13;5065121;28;20074;-68
2021/05/05 06:56:33;;;;;;;3.17;2.88;;;;;;;29.64;21.37;99194.31;5070797;28;20040;-67
2021/05/05 06:58:58;;;;;;;3.25;2.65;;;;;;;29.76;20.30;99193.94;5071023;28;20020;-68
2021/05/05 07:01:24;;;;;;;6.20;3.00;;;;;;;28.15;20.87;99189.69;5069062;28;20036;-67
2021/05/05 07:03:49;;;;;;;3.70;2.40;;;;;;;29.63;20.36;99179.03;5072430;28;20027;-68
2021/05/05 07:06:14;;;;;;;2.83;2.40;;;;;;;25.63;23.81;99184.22;5070673;28;20043;-66
2021/05/05 07:08:39;;;;;;;3.63;2.33;;;;;;;28.24;21.00;99175.13;5071484;28;20063;-67
2021/05/05 07:11:05;;;;;;;5.45;2.65;;;;;;;29.12;20.54;99191.03;5072084;28;20103;-67
2021/05/05 07:13:31;;;;;;;5.50;2.30;;;;;;;29.89;20.71;99187.94;5037533;28;20108;-67
2021/05/05 07:15:56;;;;;;;2.33;2.10;;;;;;;28.73;20.97;99186.25;5071645;28;20043;-67
2021/05/05 07:18:21;;;;;;;3.35;2.65;;;;;;;25.44;24.33;99198.63;5071891;28;20039;-67
2021/05/05 07:20:46;;;;;;;5.25;3.03;;;;;;;19.75;32.12;99193.09;5071665;28;20067;-67
2021/05/05 07:23:12;;;;;;;5.13;2.97;;;;;;;21.77;31.12;99195.13;5072207;28;20024;-66
2021/05/05 07:25:37;;;;;;;3.03;2.72;;;;;;;26.94;24.27;99184.09;5071600;28;20368;-67
2021/05/05 07:28:03;;;;;;;4.55;2.60;;;;;;;25.05;26.29;99192.31;5070706;28;20452;-67
2021/05/05 07:30:28;;;;;;;5.32;2.88;;;;;;;26.16;24.21;99203.44;5070577;28;20077;-67
2021/05/05 07:32:54;;;;;;;4.38;2.60;;;;;;;28.10;21.91;99200.19;5070507;28;20028;-70
2021/05/05 07:35:20;;;;;;;4.00;2.45;;;;;;;25.69;23.93;99193.56;5071656;28;20029;-66
2021/05/05 07:45:56;;;;;;;2.45;2.25;;;;;;;31.28;19.02;99199.94;5071070;28;20055;-66
2021/05/05 07:48:31;;;;;;;2.20;2.00;;;;;;;31.34;18.54;99188.31;5071598;28;20554;-67
2021/05/05 07:50:57;;;;;;;2.53;1.63;;;;;;;30.71;18.22;99202.09;5070546;28;20032;-68
2021/05/05 07:53:22;;;;;;;2.67;1.77;;;;;;;29.77;19.66;99199.19;5071720;28;20111;-68
2021/05/05 07:55:48;;;;;;;3.78;2.20;;;;;;;30.68;18.94;99197.03;5069961;28;20032;-67
2021/05/05 07:58:13;;;;;;;3.17;2.00;;;;;;;31.11;18.73;99200.06;5070369;28;20025;-68
2021/05/05 08:00:39;;;;;;;2.60;1.88;;;;;;;31.28;18.91;99202.66;5043640;28;20503;-68
2021/05/05 08:03:05;;;;;;;7.00;2.20;;;;;;;32.22;17.31;99199.53;5033573;28;20480;-68
2021/05/05 08:05:30;;;;;;;2.53;1.98;;;;;;;33.08;16.49;99205.25;5050191;28;20029;-68
2021/05/05 08:07:55;;;;;;;2.65;1.80;;;;;;;30.09;19.31;99202.81;5050169;28;20021;-68
2021/05/05 08:10:21;;;;;;;2.97;2.17;;;;;;;29.35;20.48;99197.59;5050057;28;20492;-68
2021/05/05 08:12:47;;;;;;;3.47;2.00;;;;;;;31.55;19.38;99194.91;5033555;28;20033;-68
2021/05/05 08:15:12;;;;;;;2.75;1.85;;;;;;;32.13;17.19;99196.06;5051148;28;20040;-67
2021/05/05 08:17:38;;;;;;;2.67;1.65;;;;;;;29.48;19.14;99210.63;5059254;28;20072;-66
2021/05/05 08:20:04;;;;;;;1.70;1.60;;;;;;;29.87;20.11;99218.00;5071873;28;20059;-68
2021/05/05 08:22:30;;;;;;;3.95;2.03;;;;;;;31.01;18.27;99215.84;5075272;28;20044;-69
2021/05/05 08:24:55;;;;;;;4.82;1.50;;;;;;;32.19;16.72;99219.00;5073874;28;20499;-69
2021/05/05 08:27:22;;;;;;;2.38;1.67;;;;;;;31.60;17.31;99216.97;5074887;28;20490;-68
2021/05/05 08:29:47;;;;;;;1.50;1.40;;;;;;;33.61;16.22;99214.88;5073938;28;20476;-69
2021/05/05 08:32:13;;;;;;;1.52;1.33;;;;;;;33.96;14.91;99211.25;5075099;28;20073;-69
2021/05/05 08:34:38;;;;;;;3.15;1.50;;;;;;;30.89;18.45;99212.69;5074780;28;20035;-69
2021/05/05 08:37:03;;;;;;;2.58;1.50;;;;;;;28.02;20.60;99214.53;5073477;28;20024;-68
2021/05/05 08:39:29;;;;;;;3.83;2.10;;;;;;;29.13;19.18;99213.56;5073627;28;20057;-68
2021/05/05 08:41:57;;;;;;;3.35;2.05;;;;;;;30.78;17.57;99208.53;5074630;28;20115;-69
2021/05/05 08:44:23;;;;;;;3.88;2.53;;;;;;;31.05;18.60;99206.28;5073569;28;20024;-68
2021/05/05 08:46:48;;;;;;;4.25;2.10;;;;;;;26.05;23.25;99206.34;5074476;28;20055;-68
2021/05/05 08:49:15;;;;;;;3.30;2.22;;;;;;;29.27;20.16;99215.59;5073291;28;20027;-68
2021/05/05 08:51:41;;;;;;;3.83;2.20;;;;;;;26.38;21.22;99215.69;5036783;28;20465;-68
2021/05/05 08:54:07;;;;;;;1.88;1.45;;;;;;;27.75;22.31;99205.63;5036770;28;20035;-68
2021/05/05 08:56:35;;;;;;;3.47;1.70;;;;;;;29.78;18.96;99209.03;5054392;28;20115;-68
2021/05/05 08:59:08;;;;;;;2.15;1.92;;;;;;;31.98;17.36;99201.56;5036841;28;20498;-68
2021/05/05 09:01:35;;;;;;;3.83;1.73;;;;;;;32.77;16.96;99190.88;5036719;28;20111;-68
2021/05/05 09:04:00;;;;;;;3.17;1.88;;;;;;;33.06;15.72;99215.50;5036719;28;20029;-68
2021/05/05 09:06:46;;;;;;;6.18;1.75;;;;;;;32.84;15.41;99212.78;5046229;28;20028;-69
2021/05/05 09:09:12;;;;;;;2.47;1.60;;;;;;;29.93;18.05;99209.16;5074391;28;20115;-68
2021/05/05 09:11:45;;;;;;;1.92;1.77;;;;;;;28.84;20.18;99194.03;5056362;28;20025;-68
2021/05/05 09:14:10;;;;;;;1.80;1.70;;;;;;;30.07;17.78;99204.84;5056452;28;20040;-69
2021/05/05 09:16:36;;;;;;;2.80;2.13;;;;;;;29.35;19.42;99211.16;5056173;28;20067;-68
2021/05/05 09:19:11;;;;;;;1.73;1.40;;;;;;;25.29;21.88;99209.88;5056190;28;20036;-68
2021/05/05 09:21:52;;;;;;;3.00;1.98;;;;;;;23.34;24.36;99208.28;5056703;28;20025;-67
2021/05/05 09:24:27;;;;;;;3.03;1.70;;;;;;;21.95;26.24;99216.13;5073947;28;20017;-68
2021/05/05 09:26:57;;;;;;;3.28;2.10;;;;;;;21.00;27.94;99213.53;5073774;28;20037;-67
2021/05/05 09:29:42;;;;;;;6.03;2.00;;;;;;;22.03;26.08;99213.66;5073856;28;20051;-68
2021/05/05 09:32:09;;;;;;;2.92;2.22;;;;;;;20.67;27.82;99215.94;5055858;28;20031;-68
2021/05/05 09:34:35;;;;;;;1.70;1.48;;;;;;;18.06;30.97;99236.28;5056128;28;20472;-67
2021/05/05 09:37:06;;;;;;;2.17;1.90;;;;;;;16.69;34.13;99233.78;5073548;28;20028;-68
2021/05/05 09:39:38;;;;;;;2.28;1.88;;;;;;;16.73;35.82;99232.63;5057109;28;20039;-67
2021/05/05 09:42:23;;;;;;;2.38;2.25;;;;;;;15.89;37.27;99234.59;5056005;28;20025;-67
2021/05/05 09:45:00;;;;;;;4.68;2.55;;;;;;;17.46;35.51;99232.84;5055879;28;20025;-66
2021/05/05 09:47:45;;;;;;;2.72;2.22;;;;;;;17.82;34.66;99238.69;5073582;28;20396;-67
2021/05/05 09:50:39;;;;;;;2.80;2.10;;;;;;;21.56;27.59;99222.69;5072342;28;20589;-67
2021/05/05 09:53:27;;;;;;;3.88;2.10;;;;;;;20.16;27.63;99233.94;5055808;28;20032;-66
2021/05/05 09:55:52;;;;;;;2.65;2.17;;;;;;;17.74;31.97;99231.13;5056271;28;20055;-64
2021/05/05 09:58:28;;;;;;;2.50;2.30;;;;;;;20.23;29.97;99229.84;5073484;28;20052;-65
2021/05/05 10:01:06;;;;;;;5.72;2.40;;;;;;;20.61;30.08;99221.78;5073487;28;20032;-67
2021/05/05 10:03:40;;;;;;;1.83;1.73;;;;;;;24.67;24.68;99221.81;5055820;28;20043;-67
2021/05/05 10:06:34;;;;;;;21.33;3.80;;;;;;;25.13;22.38;99215.00;5071788;28;20097;-67
2021/05/05 10:09:01;;;;;;;2.85;1.70;;;;;;;26.26;23.56;99216.88;5073069;28;20376;-67
2021/05/05 10:11:31;;;;;;;15.63;2.90;;;;;;;22.66;24.98;99226.50;5073252;28;20030;-68
2021/05/05 10:14:02;;;;;;;3.45;2.05;;;;;;;19.93;27.99;99222.16;5071947;28;20028;-68
2021/05/05 10:16:31;;;;;;;4.68;1.70;;;;;;;24.37;24.39;99212.00;5071532;28;20025;-68
2021/05/05 10:18:57;;;;;;;1.75;1.65;;;;;;;23.86;22.74;99218.22;5056746;28;20107;-68
2021/05/05 10:21:24;;;;;;;2.90;1.70;;;;;;;22.00;25.31;99217.47;5071505;28;20021;-68
2021/05/05 10:23:51;;;;;;;3.08;2.00;;;;;;;21.48;25.31;99219.75;5053648;28;20027;-67
2021/05/05 10:26:19;;;;;;;2.65;1.70;;;;;;;20.41;27.76;99233.97;5053840;28;20012;-67
2021/05/05 10:28:45;;;;;;;1.63;1.52;;;;;;;19.40;28.36;99242.75;5059949;28;20051;-67
2021/05/05 10:31:22;;;;;;;3.33;2.20;;;;;;;17.05;33.47;99276.97;5058460;28;20060;-67
2021/05/05 10:33:50;;;;;;;2.33;2.13;;;;;;;14.06;44.93;99303.72;5051039;28;20028;-67
2021/05/05 10:36:31;;;;;;;1.77;1.67;;;;;;;13.43;45.49;99317.03;5053783;28;20032;-67
2021/05/05 10:38:57;;;;;;;2.92;1.95;;;;;;;13.33;47.58;99331.56;5070407;28;20494;-67
2021/05/05 10:41:23;;;;;;;2.28;1.98;;;;;;;12.77;48.59;99344.44;5053447;28;20432;-67
2021/05/05 10:43:49;;;;;;;1.67;1.58;;;;;;;12.68;49.42;99353.59;5054111;28;20108;-66
2021/05/05 10:46:28;;;;;;;2.65;1.70;;;;;;;12.53;49.83;99352.38;5054389;28;20031;-67
2021/05/05 10:49:15;;;;;;;3.63;1.83;;;;;;;11.93;52.64;99359.81;5054614;28;20020;-67
2021/05/05 10:51:44;;;;;;;3.22;2.00;;;;;;;11.60;53.67;99365.34;5072130;28;20052;-66
2021/05/05 10:54:09;;;;;;;2.88;2.67;;;;;;;11.77;54.76;99363.94;5072422;28;20028;-66
2021/05/05 10:56:35;;;;;;;2.97;2.67;;;;;;;12.78;51.46;99348.78;5054347;28;20016;-67
2021/05/05 10:59:03;;;;;;;2.30;2.20;;;;;;;13.67;49.88;99340.75;5054315;28;20395;-67
2021/05/05 11:01:39;;;;;;;2.20;1.92;;;;;;;14.74;46.46;99321.78;5071070;28;20054;-68
2021/05/05 11:04:05;;;;;;;2.05;1.88;;;;;;;14.75;48.83;99328.81;5072196;28;20105;-66
2021/05/05 11:06:37;;;;;;;1.70;1.60;;;;;;;15.70;46.04;99325.94;5070499;28;20029;-67
2021/05/05 11:09:17;;;;;;;1.67;1.58;;;;;;;15.90;43.27;99340.00;5072058;28;20021;-67
2021/05/05 11:11:50;;;;;;;1.63;1.52;;;;;;;16.35;42.84;99342.09;5072123;28;20024;-67
2021/05/05 11:14:28;;;;;;;3.05;2.47;;;;;;;16.65;41.09;99344.91;5070931;28;20063;-67
2021/05/05 11:17:06;;;;;;;2.28;2.08;;;;;;;17.24;40.60;99345.19;5071773;28;20548;-67
2021/05/05 11:19:37;;;;;;;2.00;1.88;;;;;;;18.37;40.26;99355.41;5072111;28;20021;-67
2021/05/05 11:22:09;;;;;;;2.55;1.75;;;;;;;18.79;39.48;99358.94;5071886;28;20070;-66
2021/05/05 11:24:38;;;;;;;1.90;1.80;;;;;;;18.85;39.57;99363.88;5065961;28;20483;-67
2021/05/05 11:27:06;;;;;;;2.20;2.08;;;;;;;18.96;38.86;99365.88;5070386;28;20029;-67
2021/05/05 11:29:33;;;;;;;2.25;2.00;;;;;;;19.52;37.35;99356.03;5070788;28;20024;-68
2021/05/05 11:31:59;;;;;;;2.05;1.85;;;;;;;19.88;36.39;99358.97;5070689;28;20040;-67
2021/05/05 11:34:25;;;;;;;2.60;1.83;;;;;;;19.74;37.43;99365.25;5070632;28;20020;-65
2021/05/05 11:37:00;;;;;;;2.35;2.00;;;;;;;19.60;36.75;99360.84;5071687;28;20024;-65
2021/05/05 11:39:27;;;;;;;2.42;2.22;;;;;;;18.95;37.76;99365.97;5071752;28;20103;-65
2021/05/05 11:41:58;;;;;;;2.90;2.70;;;;;;;18.12;39.83;99355.13;5051766;28;20020;-67